Portada
METAR-TAF:

METAR-TAF

Aeroports :

Uliànovsk, Rússia

latitud: 54-21N, longitud: 048-23E, altitud: 77 m

Observació

L'informe es va fer fa 32 minuts, a les 03:00 UTC
Vent 8 kt del Sud-Oest
Temperatura 0°C
Humitat 74%
Pressió 1008 hPa
Visibilitat: 8000 m

METAR: UWLW 070300Z 23004MPS 8000 NSC M00/M04 Q1008 R20/CLRD60 NOSIG RMK QFE751

Hora: 06:32 (03:32 UTC)

Pronòstic

L'informe es va fer fa 1 hora i 47 minuts, a les 01:45 UTC
Pronòstic vàlid del 07 a les 03 UTC al 08 a les 03 UTC
Vent 6 kt del Sud-Oest amb ràfegues de 17 kt
Visibilitat: 8000 m
Cel cobert a una alçada de 1500 ft
Temporalment
l' 07 a les 03 UTC al 08 a les 03 UTC
Vent 12 kt del Sud amb ràfegues de 25 kt
Visibilitat: 3100 m
Cel cobert a una alçada de 1100 ft
neu, pluja, boirina

TAF: UWLW 070145Z 0703/0803 22003G09MPS 8000 OVC015 TEMPO 0703/0803 19006G13MPS 3100 -SNRA BR OVC011

Observacions i pronòstics meteorològics de més de 4000 aeroports (METAR i TAF).

Les estacions disponibles són els punts grocs i vermells al mapa.

Posi el ratolí al punt desitjat per veure el nom de l'estació.

Feu clic per veure les observacions i els pronòstics meteorològics.

Per canviar el mapa: feu clic els botons verds amb una creu de color negre per apropar; al botó verd amb un guió per allunyar la imatge; o en les fletxes verdes per a mapes adjacents.


METAR-TAF: